createdAt,value
2019-03-24T00:03:24.392Z,22.97
2019-03-24T00:08:30.095Z,22.90
2019-03-24T00:13:36.104Z,22.50
2019-03-24T00:18:42.124Z,21.83
2019-03-24T00:23:47.676Z,23.97
2019-03-24T00:28:54.953Z,23.70
2019-03-24T00:34:01.189Z,23.13
2019-03-24T00:39:07.371Z,23.17
2019-03-24T00:44:13.047Z,23.17
2019-03-24T00:49:19.205Z,22.63
2019-03-24T00:54:24.759Z,22.93
2019-03-24T00:59:31.496Z,22.57
2019-03-24T01:04:36.864Z,22.97
2019-03-24T01:09:42.353Z,22.33
2019-03-24T01:14:48.072Z,23.63
2019-03-24T01:19:53.704Z,23.07
2019-03-24T01:24:59.075Z,23.40
2019-03-24T01:30:05.707Z,23.17
2019-03-24T01:35:11.139Z,22.70
2019-03-24T01:40:16.744Z,21.87
2019-03-24T01:45:22.126Z,23.07
2019-03-24T01:50:27.644Z,22.20
2019-03-24T01:55:33.558Z,21.67
2019-03-24T02:00:39.170Z,23.17
2019-03-24T02:05:44.469Z,21.57
2019-03-24T02:10:50.098Z,20.73
2019-03-24T02:15:55.507Z,20.73
2019-03-24T02:21:00.792Z,21.77
2019-03-24T02:26:06.296Z,20.20
2019-03-24T02:31:11.895Z,22.90
2019-03-24T02:36:16.621Z,22.50
2019-03-24T02:41:21.695Z,22.30
2019-03-24T02:46:26.499Z,21.73
2019-03-24T02:51:31.022Z,21.70
2019-03-24T02:56:35.599Z,24.37
2019-03-24T03:01:40.025Z,22.47
2019-03-24T03:06:44.661Z,22.57
2019-03-24T03:11:49.079Z,22.60
2019-03-24T03:16:53.586Z,20.07
2019-03-24T03:21:58.107Z,22.20
2019-03-24T03:27:03.633Z,21.10
2019-03-24T03:32:09.031Z,21.00
2019-03-24T03:37:14.716Z,18.83
2019-03-24T03:42:20.315Z,22.10
2019-03-24T03:47:25.597Z,21.57
2019-03-24T03:52:31.237Z,22.80
2019-03-24T03:57:36.585Z,23.20
2019-03-24T04:02:42.762Z,21.30
2019-03-24T04:07:48.117Z,22.67
2019-03-24T04:12:56.356Z,23.27
2019-03-24T04:18:01.595Z,23.40
2019-03-24T04:23:07.338Z,22.20
2019-03-24T04:28:12.814Z,22.00
2019-03-24T04:33:18.257Z,22.17
2019-03-24T04:38:23.702Z,21.47
2019-03-24T04:43:28.899Z,23.00
2019-03-24T04:48:34.093Z,22.70
2019-03-24T04:53:39.468Z,22.73
2019-03-24T04:58:44.851Z,21.87
2019-03-24T05:03:51.185Z,20.17
2019-03-24T05:08:57.148Z,22.80
2019-03-24T05:14:02.405Z,22.17
2019-03-24T05:19:07.677Z,22.17
2019-03-24T05:24:13.177Z,21.50
2019-03-24T05:29:18.822Z,22.67
2019-03-24T05:34:24.395Z,23.20
2019-03-24T05:39:29.447Z,20.70
2019-03-24T05:44:34.988Z,21.07
2019-03-24T05:49:40.397Z,22.03
2019-03-24T05:54:45.746Z,22.47
2019-03-24T05:59:51.134Z,22.07
2019-03-24T06:04:56.874Z,22.87
2019-03-24T06:10:02.145Z,23.07
2019-03-24T06:15:08.612Z,22.60
2019-03-24T06:20:14.825Z,21.93
2019-03-24T06:25:20.258Z,24.27
2019-03-24T06:30:25.805Z,24.17
2019-03-24T06:35:31.684Z,24.20
2019-03-24T06:40:35.883Z,25.80
2019-03-24T06:45:39.957Z,27.37
2019-03-24T06:50:43.929Z,27.00
2019-03-24T06:55:49.123Z,30.40
2019-03-24T07:00:54.349Z,30.30
2019-03-24T07:06:00.091Z,29.70
2019-03-24T07:11:10.486Z,30.70
2019-03-24T07:16:12.054Z,30.37
2019-03-24T07:21:17.005Z,29.80
2019-03-24T07:26:23.130Z,28.80
2019-03-24T07:31:27.863Z,30.37
2019-03-24T07:36:32.675Z,29.90
2019-03-24T07:41:37.591Z,28.53
2019-03-24T07:46:42.486Z,28.97
2019-03-24T07:51:47.416Z,26.63
2019-03-24T07:56:51.886Z,26.60
2019-03-24T08:02:15.547Z,27.33
2019-03-24T08:07:23.001Z,27.90
2019-03-24T08:12:29.506Z,26.30
2019-03-24T08:17:36.176Z,25.40
2019-03-24T08:22:42.437Z,25.73
2019-03-24T08:27:47.995Z,26.70
2019-03-24T08:32:53.830Z,24.40
2019-03-24T08:37:59.644Z,25.00
2019-03-24T08:43:05.332Z,24.60
2019-03-24T08:48:12.848Z,26.20
2019-03-24T08:53:18.620Z,24.37
2019-03-24T08:58:24.582Z,25.17
2019-03-24T09:03:32.622Z,26.50
2019-03-24T09:08:41.870Z,25.00
2019-03-24T09:13:47.887Z,24.67
2019-03-24T09:19:04.140Z,25.40
2019-03-24T09:24:10.026Z,25.70
2019-03-24T09:29:15.469Z,24.57
2019-03-24T09:34:21.085Z,25.00
2019-03-24T09:39:26.823Z,24.80
2019-03-24T09:44:32.469Z,26.00
2019-03-24T09:49:38.271Z,25.30
2019-03-24T09:54:44.509Z,25.27
2019-03-24T09:59:50.902Z,24.67
2019-03-24T10:04:56.405Z,25.40
2019-03-24T10:10:02.894Z,25.83
2019-03-24T10:15:09.262Z,26.97
2019-03-24T10:20:16.039Z,25.13
2019-03-24T10:25:22.044Z,26.50
2019-03-24T10:30:29.480Z,27.00
2019-03-24T10:35:35.890Z,27.17
2019-03-24T10:40:42.299Z,27.00
2019-03-24T10:45:47.958Z,26.23
2019-03-24T10:50:54.137Z,25.37
2019-03-24T10:55:59.098Z,26.17
2019-03-24T11:01:04.785Z,24.87
2019-03-24T11:06:08.834Z,25.27
2019-03-24T11:11:13.639Z,24.60
2019-03-24T11:16:18.547Z,26.90
2019-03-24T11:21:22.829Z,26.87
2019-03-24T11:26:26.951Z,26.00
2019-03-24T11:31:30.946Z,25.50
2019-03-24T11:36:38.086Z,25.47
2019-03-24T11:41:43.835Z,26.40
2019-03-24T11:46:48.911Z,26.03
2019-03-24T11:52:02.400Z,25.17
2019-03-24T11:57:08.057Z,26.30
2019-03-24T12:02:13.187Z,26.53
2019-03-24T12:07:19.288Z,26.50
2019-03-24T12:12:39.965Z,24.17
2019-03-24T12:17:46.334Z,24.97
2019-03-24T12:22:54.545Z,25.17
2019-03-24T12:28:01.084Z,24.97
2019-03-24T12:33:09.571Z,26.40
2019-03-24T12:38:15.239Z,26.73
2019-03-24T12:43:20.979Z,24.40
2019-03-24T12:48:26.895Z,26.10
2019-03-24T12:53:33.689Z,26.37
2019-03-24T12:58:39.474Z,26.20
2019-03-24T13:03:45.728Z,25.37
2019-03-24T13:08:51.149Z,26.17
2019-03-24T13:13:58.347Z,26.57
2019-03-24T13:19:04.659Z,25.10
2019-03-24T13:24:10.850Z,25.87
2019-03-24T13:29:16.333Z,25.90
2019-03-24T13:34:22.513Z,26.70
2019-03-24T13:39:28.203Z,27.57
2019-03-24T13:44:33.841Z,28.20
2019-03-24T13:49:39.577Z,27.23
2019-03-24T13:54:45.537Z,24.10
2019-03-24T13:59:51.279Z,26.13
2019-03-24T14:04:56.539Z,25.60
2019-03-24T14:10:02.648Z,24.33
2019-03-24T14:15:09.939Z,23.27
2019-03-24T14:20:16.076Z,23.27
2019-03-24T14:25:21.681Z,23.43
2019-03-24T14:30:47.970Z,21.30
2019-03-24T14:35:53.893Z,22.00
2019-03-24T14:40:59.959Z,21.63
2019-03-24T14:46:06.818Z,22.43
2019-03-24T14:51:11.553Z,21.47
2019-03-24T14:56:19.039Z,22.10
2019-03-24T15:01:24.236Z,23.17
2019-03-24T15:06:28.947Z,22.00
2019-03-24T15:11:33.683Z,20.20
2019-03-24T15:16:40.133Z,20.50
2019-03-24T15:21:45.245Z,21.00
2019-03-24T15:26:50.052Z,21.70
2019-03-24T15:31:56.660Z,21.67
2019-03-24T15:37:01.653Z,20.90
2019-03-24T15:42:07.850Z,20.30
2019-03-24T15:47:13.533Z,21.90
2019-03-24T15:52:19.604Z,20.17
2019-03-24T15:57:25.542Z,22.07
2019-03-24T16:02:31.045Z,20.97
2019-03-24T16:07:37.476Z,19.50
2019-03-24T16:12:44.039Z,18.40
2019-03-24T16:17:51.892Z,18.27
2019-03-24T16:22:57.188Z,17.13
2019-03-24T16:28:04.389Z,17.43
2019-03-24T16:33:10.287Z,16.50
2019-03-24T16:38:16.021Z,15.87
2019-03-24T16:43:21.826Z,14.40
2019-03-24T16:48:36.424Z,14.80
2019-03-24T16:53:36.190Z,13.13
2019-03-24T16:58:41.997Z,12.20
2019-03-24T17:03:47.477Z,11.27
2019-03-24T17:08:53.017Z,11.27
2019-03-24T17:13:59.717Z,11.70
2019-03-24T17:19:05.919Z,12.07
2019-03-24T17:24:11.701Z,10.27
2019-03-24T17:29:18.222Z,9.43
2019-03-24T17:34:23.797Z,9.70
2019-03-24T17:39:31.892Z,9.10
2019-03-24T17:44:37.944Z,9.00
2019-03-24T17:49:44.822Z,9.90
2019-03-24T17:54:51.300Z,10.10
2019-03-24T17:59:56.760Z,9.20
2019-03-24T18:05:02.885Z,9.03
2019-03-24T18:10:09.650Z,9.10
2019-03-24T18:15:16.023Z,9.50
2019-03-24T18:20:31.504Z,10.03
2019-03-24T18:25:37.370Z,10.20
2019-03-24T18:30:42.901Z,12.60
2019-03-24T18:35:50.678Z,12.80
2019-03-24T18:40:56.757Z,11.40
2019-03-24T18:46:02.535Z,12.90
2019-03-24T18:51:08.872Z,17.07
2019-03-24T18:56:14.729Z,15.30
2019-03-24T19:01:19.605Z,14.87
2019-03-24T19:06:24.144Z,12.33
2019-03-24T19:11:28.860Z,11.13
2019-03-24T19:16:34.122Z,12.63
2019-03-24T19:21:38.914Z,13.17
2019-03-24T19:26:44.095Z,14.27
2019-03-24T19:31:49.227Z,13.20
2019-03-24T19:36:55.705Z,13.20
2019-03-24T19:42:01.474Z,14.67
2019-03-24T19:47:08.077Z,14.30
2019-03-24T19:52:13.545Z,15.60
2019-03-24T19:57:19.249Z,14.40
2019-03-24T20:02:24.012Z,15.60
2019-03-24T20:07:29.722Z,15.90
2019-03-24T20:12:35.816Z,15.50
2019-03-24T20:17:42.621Z,15.47
2019-03-24T20:22:56.306Z,15.60
2019-03-24T20:27:57.921Z,15.37
2019-03-24T20:33:03.365Z,16.57
2019-03-24T20:38:09.282Z,17.33
2019-03-24T20:43:15.405Z,20.70
2019-03-24T20:48:21.918Z,19.50
2019-03-24T20:53:27.715Z,18.80
2019-03-24T20:58:33.778Z,20.87
2019-03-24T21:03:40.154Z,18.60
2019-03-24T21:08:46.038Z,19.60
2019-03-24T21:13:52.094Z,19.60
2019-03-24T21:18:59.568Z,20.40
2019-03-24T21:24:05.476Z,21.73
2019-03-24T21:29:11.304Z,20.53
2019-03-24T21:34:16.872Z,20.40
2019-03-24T21:39:22.744Z,19.20
2019-03-24T21:44:28.324Z,20.30
2019-03-24T21:49:34.117Z,19.90
2019-03-24T21:54:41.158Z,20.40
2019-03-24T21:59:47.087Z,18.60
2019-03-24T22:04:52.712Z,18.60
2019-03-24T22:10:01.408Z,20.50
2019-03-24T22:15:08.008Z,18.20
2019-03-24T22:20:14.575Z,19.50
2019-03-24T22:25:20.452Z,20.80
2019-03-24T22:30:26.256Z,20.70
2019-03-24T22:35:31.936Z,20.47
2019-03-24T22:40:37.553Z,20.83
2019-03-24T22:45:43.594Z,21.90
2019-03-24T22:50:49.295Z,21.40
2019-03-24T22:55:54.910Z,20.87
2019-03-24T23:00:58.911Z,22.37
2019-03-24T23:06:04.107Z,22.90
2019-03-24T23:11:08.956Z,23.60
2019-03-24T23:16:14.038Z,20.90
2019-03-24T23:21:18.964Z,18.50
2019-03-24T23:26:23.864Z,20.83
2019-03-24T23:31:28.546Z,19.00
2019-03-24T23:36:33.048Z,18.73
2019-03-24T23:41:37.600Z,18.03
2019-03-24T23:46:43.208Z,18.00
2019-03-24T23:51:48.776Z,17.80
2019-03-24T23:56:54.472Z,17.23
